Air Navigation Services of Czech Republic
Airport: LKPR Updated:  07.02.2023 14:08:32  UTC
 METAR LKPR 07.02. 14:00 ...
METAR LKPR 071400Z VRB02KT CAVOK M01/M08 Q1039 NOSIG=
 TAF LKPR 07.02. 14:00 ...
TAF LKPR 071400Z 0715/0821 VRB02KT CAVOK      BECMG 0719/0721 14004KT      TEMPO 0805/0808 2000 BR SCT003=